sensor_id;sensor_type;location;lat;lon;timestamp;temperature;humidity
51996;DHT22;38010;53.264;6.592;2023-09-19T00:01:33;20.00;99.90
51996;DHT22;38010;53.264;6.592;2023-09-19T00:03:59;20.00;99.90
51996;DHT22;38010;53.264;6.592;2023-09-19T00:06:28;20.00;99.90
51996;DHT22;38010;53.264;6.592;2023-09-19T00:08:57;20.00;99.90
51996;DHT22;38010;53.264;6.592;2023-09-19T00:11:25;20.00;99.90
51996;DHT22;38010;53.264;6.592;2023-09-19T00:13:52;20.00;99.90
51996;DHT22;38010;53.264;6.592;2023-09-19T00:16:18;20.00;99.90
51996;DHT22;38010;53.264;6.592;2023-09-19T00:18:45;20.00;99.90
51996;DHT22;38010;53.264;6.592;2023-09-19T00:21:11;20.00;99.90
51996;DHT22;38010;53.264;6.592;2023-09-19T00:23:37;20.00;99.90
51996;DHT22;38010;53.264;6.592;2023-09-19T00:26:02;19.90;99.90
51996;DHT22;38010;53.264;6.592;2023-09-19T00:28:29;19.90;99.90
51996;DHT22;38010;53.264;6.592;2023-09-19T00:30:55;20.00;99.90
51996;DHT22;38010;53.264;6.592;2023-09-19T00:33:22;19.90;99.90
51996;DHT22;38010;53.264;6.592;2023-09-19T00:35:52;19.90;99.90
51996;DHT22;38010;53.264;6.592;2023-09-19T00:38:21;19.90;99.90
51996;DHT22;38010;53.264;6.592;2023-09-19T00:40:50;19.90;99.90
51996;DHT22;38010;53.264;6.592;2023-09-19T00:43:22;19.90;99.90
51996;DHT22;38010;53.264;6.592;2023-09-19T00:45:52;19.90;99.90
51996;DHT22;38010;53.264;6.592;2023-09-19T00:48:20;19.90;99.90
51996;DHT22;38010;53.264;6.592;2023-09-19T00:50:47;19.90;99.90
51996;DHT22;38010;53.264;6.592;2023-09-19T00:53:19;19.90;99.90
51996;DHT22;38010;53.264;6.592;2023-09-19T00:55:46;19.90;99.90
51996;DHT22;38010;53.264;6.592;2023-09-19T00:58:13;19.90;99.90
51996;DHT22;38010;53.264;6.592;2023-09-19T01:00:38;19.80;99.90
51996;DHT22;38010;53.264;6.592;2023-09-19T01:03:05;19.80;99.90
51996;DHT22;38010;53.264;6.592;2023-09-19T01:05:33;19.80;99.90
51996;DHT22;38010;53.264;6.592;2023-09-19T01:07:59;19.80;99.90
51996;DHT22;38010;53.264;6.592;2023-09-19T01:10:25;19.80;99.90
51996;DHT22;38010;53.264;6.592;2023-09-19T01:16:28;19.80;99.90
51996;DHT22;38010;53.264;6.592;2023-09-19T01:19:14;19.80;99.90
51996;DHT22;38010;53.264;6.592;2023-09-19T01:30:27;19.80;99.90
51996;DHT22;38010;53.264;6.592;2023-09-19T01:32:55;19.70;99.90
51996;DHT22;38010;53.264;6.592;2023-09-19T01:35:22;19.80;99.90
51996;DHT22;38010;53.264;6.592;2023-09-19T01:37:48;19.80;99.90
51996;DHT22;38010;53.264;6.592;2023-09-19T01:40:17;19.80;99.90
51996;DHT22;38010;53.264;6.592;2023-09-19T01:45:57;19.70;99.90
51996;DHT22;38010;53.264;6.592;2023-09-19T01:48:43;19.70;99.90
51996;DHT22;38010;53.264;6.592;2023-09-19T01:51:20;19.70;99.90
51996;DHT22;38010;53.264;6.592;2023-09-19T01:53:59;19.70;99.90
51996;DHT22;38010;53.264;6.592;2023-09-19T01:56:48;19.70;99.90
51996;DHT22;38010;53.264;6.592;2023-09-19T01:59:24;19.70;99.90
51996;DHT22;38010;53.264;6.592;2023-09-19T02:01:53;19.70;99.90
51996;DHT22;38010;53.264;6.592;2023-09-19T02:04:19;19.70;99.90
51996;DHT22;38010;53.264;6.592;2023-09-19T02:06:48;19.70;99.90
51996;DHT22;38010;53.264;6.592;2023-09-19T02:09:16;19.70;99.90
51996;DHT22;38010;53.264;6.592;2023-09-19T02:11:42;19.70;99.90
51996;DHT22;38010;53.264;6.592;2023-09-19T02:14:08;19.70;99.90
51996;DHT22;38010;53.264;6.592;2023-09-19T02:16:34;19.60;99.90
51996;DHT22;38010;53.264;6.592;2023-09-19T02:19:00;19.70;99.90
51996;DHT22;38010;53.264;6.592;2023-09-19T02:21:26;19.70;99.90
51996;DHT22;38010;53.264;6.592;2023-09-19T02:23:55;19.70;99.90
51996;DHT22;38010;53.264;6.592;2023-09-19T02:26:21;19.60;99.90
51996;DHT22;38010;53.264;6.592;2023-09-19T02:28:50;19.60;99.90
51996;DHT22;38010;53.264;6.592;2023-09-19T02:31:16;19.60;99.90
51996;DHT22;38010;53.264;6.592;2023-09-19T02:33:42;19.60;99.90
51996;DHT22;38010;53.264;6.592;2023-09-19T02:36:08;19.60;99.90
51996;DHT22;38010;53.264;6.592;2023-09-19T02:38:34;19.60;99.90
51996;DHT22;38010;53.264;6.592;2023-09-19T02:41:00;19.60;99.90
51996;DHT22;38010;53.264;6.592;2023-09-19T02:43:27;19.60;99.90
51996;DHT22;38010;53.264;6.592;2023-09-19T02:45:53;19.60;99.90
51996;DHT22;38010;53.264;6.592;2023-09-19T02:48:22;19.60;99.90
51996;DHT22;38010;53.264;6.592;2023-09-19T02:50:51;19.60;99.90
51996;DHT22;38010;53.264;6.592;2023-09-19T02:53:17;19.60;99.90
51996;DHT22;38010;53.264;6.592;2023-09-19T02:55:44;19.60;99.90
51996;DHT22;38010;53.264;6.592;2023-09-19T02:58:10;19.60;99.90
51996;DHT22;38010;53.264;6.592;2023-09-19T03:00:39;19.60;99.90
51996;DHT22;38010;53.264;6.592;2023-09-19T03:03:07;19.60;99.90
51996;DHT22;38010;53.264;6.592;2023-09-19T03:05:34;19.60;99.90
51996;DHT22;38010;53.264;6.592;2023-09-19T03:08:00;19.60;99.90
51996;DHT22;38010;53.264;6.592;2023-09-19T03:10:26;19.60;99.90
51996;DHT22;38010;53.264;6.592;2023-09-19T03:12:53;19.50;99.90
51996;DHT22;38010;53.264;6.592;2023-09-19T03:15:19;19.50;99.90
51996;DHT22;38010;53.264;6.592;2023-09-19T03:17:46;19.50;99.90
51996;DHT22;38010;53.264;6.592;2023-09-19T03:20:13;19.50;99.90
51996;DHT22;38010;53.264;6.592;2023-09-19T03:22:43;19.50;99.90
51996;DHT22;38010;53.264;6.592;2023-09-19T03:25:09;19.50;99.90
51996;DHT22;38010;53.264;6.592;2023-09-19T03:27:40;19.50;99.90
51996;DHT22;38010;53.264;6.592;2023-09-19T03:30:07;19.50;99.90
51996;DHT22;38010;53.264;6.592;2023-09-19T03:32:37;19.50;99.90
51996;DHT22;38010;53.264;6.592;2023-09-19T03:35:04;19.50;99.90
51996;DHT22;38010;53.264;6.592;2023-09-19T03:37:31;19.50;99.90
51996;DHT22;38010;53.264;6.592;2023-09-19T03:39:57;19.50;99.90
51996;DHT22;38010;53.264;6.592;2023-09-19T03:42:23;19.40;99.90
51996;DHT22;38010;53.264;6.592;2023-09-19T03:44:52;19.40;99.90
51996;DHT22;38010;53.264;6.592;2023-09-19T03:47:18;19.40;99.90
51996;DHT22;38010;53.264;6.592;2023-09-19T03:49:44;19.50;99.90
51996;DHT22;38010;53.264;6.592;2023-09-19T03:52:10;19.40;99.90
51996;DHT22;38010;53.264;6.592;2023-09-19T03:54:36;19.40;99.90
51996;DHT22;38010;53.264;6.592;2023-09-19T03:57:03;19.40;99.90
51996;DHT22;38010;53.264;6.592;2023-09-19T03:59:29;19.40;99.90
51996;DHT22;38010;53.264;6.592;2023-09-19T04:01:55;19.40;99.90
51996;DHT22;38010;53.264;6.592;2023-09-19T04:04:22;19.40;99.90
51996;DHT22;38010;53.264;6.592;2023-09-19T04:06:53;19.40;99.90
51996;DHT22;38010;53.264;6.592;2023-09-19T04:09:18;19.40;99.90
51996;DHT22;38010;53.264;6.592;2023-09-19T04:11:44;19.40;99.90
51996;DHT22;38010;53.264;6.592;2023-09-19T04:14:10;19.40;99.90
51996;DHT22;38010;53.264;6.592;2023-09-19T04:16:35;19.40;99.90
51996;DHT22;38010;53.264;6.592;2023-09-19T04:19:01;19.40;99.90
51996;DHT22;38010;53.264;6.592;2023-09-19T04:21:28;19.40;99.90
51996;DHT22;38010;53.264;6.592;2023-09-19T04:23:54;19.40;99.90
51996;DHT22;38010;53.264;6.592;2023-09-19T04:26:20;19.40;99.90
51996;DHT22;38010;53.264;6.592;2023-09-19T04:28:47;19.40;99.90
51996;DHT22;38010;53.264;6.592;2023-09-19T04:31:13;19.30;99.90
51996;DHT22;38010;53.264;6.592;2023-09-19T04:33:39;19.40;99.90
51996;DHT22;38010;53.264;6.592;2023-09-19T04:36:05;19.30;99.90
51996;DHT22;38010;53.264;6.592;2023-09-19T04:38:33;19.30;99.90
51996;DHT22;38010;53.264;6.592;2023-09-19T04:40:59;19.30;99.90
51996;DHT22;38010;53.264;6.592;2023-09-19T04:43:25;19.40;99.90
51996;DHT22;38010;53.264;6.592;2023-09-19T04:45:51;19.30;99.90
51996;DHT22;38010;53.264;6.592;2023-09-19T04:48:22;19.30;99.90
51996;DHT22;38010;53.264;6.592;2023-09-19T04:50:50;19.30;99.90
51996;DHT22;38010;53.264;6.592;2023-09-19T04:53:17;19.30;99.90
51996;DHT22;38010;53.264;6.592;2023-09-19T04:55:44;19.30;99.90
51996;DHT22;38010;53.264;6.592;2023-09-19T04:58:10;19.30;99.90
51996;DHT22;38010;53.264;6.592;2023-09-19T05:00:36;19.30;99.90
51996;DHT22;38010;53.264;6.592;2023-09-19T05:03:01;19.30;99.90
51996;DHT22;38010;53.264;6.592;2023-09-19T05:05:29;19.30;99.90
51996;DHT22;38010;53.264;6.592;2023-09-19T05:07:55;19.30;99.90
51996;DHT22;38010;53.264;6.592;2023-09-19T05:10:21;19.30;99.90
51996;DHT22;38010;53.264;6.592;2023-09-19T05:12:47;19.30;99.90
51996;DHT22;38010;53.264;6.592;2023-09-19T05:15:14;19.30;99.90
51996;DHT22;38010;53.264;6.592;2023-09-19T05:17:51;19.30;99.90
51996;DHT22;38010;53.264;6.592;2023-09-19T05:20:17;19.30;99.90
51996;DHT22;38010;53.264;6.592;2023-09-19T05:23:04;19.30;99.90
51996;DHT22;38010;53.264;6.592;2023-09-19T05:25:35;19.30;99.90
51996;DHT22;38010;53.264;6.592;2023-09-19T05:28:05;19.30;99.90
51996;DHT22;38010;53.264;6.592;2023-09-19T05:30:32;19.30;99.90
51996;DHT22;38010;53.264;6.592;2023-09-19T05:32:58;19.30;99.90
51996;DHT22;38010;53.264;6.592;2023-09-19T05:35:24;19.30;99.90
51996;DHT22;38010;53.264;6.592;2023-09-19T05:37:51;19.30;99.90
51996;DHT22;38010;53.264;6.592;2023-09-19T05:40:17;19.30;99.90
51996;DHT22;38010;53.264;6.592;2023-09-19T05:42:43;19.30;99.90
51996;DHT22;38010;53.264;6.592;2023-09-19T05:45:10;19.30;99.90
51996;DHT22;38010;53.264;6.592;2023-09-19T05:47:38;19.30;99.90
51996;DHT22;38010;53.264;6.592;2023-09-19T05:50:06;19.30;99.90
51996;DHT22;38010;53.264;6.592;2023-09-19T05:52:35;19.30;99.90
51996;DHT22;38010;53.264;6.592;2023-09-19T05:55:04;19.30;99.90
51996;DHT22;38010;53.264;6.592;2023-09-19T05:57:32;19.30;99.90
51996;DHT22;38010;53.264;6.592;2023-09-19T05:59:58;19.30;99.90
51996;DHT22;38010;53.264;6.592;2023-09-19T06:02:23;19.30;99.90
51996;DHT22;38010;53.264;6.592;2023-09-19T06:04:52;19.30;99.90
51996;DHT22;38010;53.264;6.592;2023-09-19T06:07:18;19.30;99.90
51996;DHT22;38010;53.264;6.592;2023-09-19T06:09:44;19.30;99.90
51996;DHT22;38010;53.264;6.592;2023-09-19T06:12:09;19.30;99.90
51996;DHT22;38010;53.264;6.592;2023-09-19T06:14:39;19.30;99.90
51996;DHT22;38010;53.264;6.592;2023-09-19T06:17:05;19.30;99.90
51996;DHT22;38010;53.264;6.592;2023-09-19T06:19:31;19.30;99.90
51996;DHT22;38010;53.264;6.592;2023-09-19T06:21:58;19.30;99.90
51996;DHT22;38010;53.264;6.592;2023-09-19T06:24:25;19.30;99.90
51996;DHT22;38010;53.264;6.592;2023-09-19T06:26:51;19.30;99.90
51996;DHT22;38010;53.264;6.592;2023-09-19T06:29:18;19.30;99.90
51996;DHT22;38010;53.264;6.592;2023-09-19T06:31:46;19.30;99.90
51996;DHT22;38010;53.264;6.592;2023-09-19T06:34:12;19.30;99.90
51996;DHT22;38010;53.264;6.592;2023-09-19T06:36:41;19.30;99.90
51996;DHT22;38010;53.264;6.592;2023-09-19T06:39:07;19.30;99.90
51996;DHT22;38010;53.264;6.592;2023-09-19T06:41:37;19.30;99.90
51996;DHT22;38010;53.264;6.592;2023-09-19T06:44:04;19.30;99.90
51996;DHT22;38010;53.264;6.592;2023-09-19T06:46:30;19.30;99.90
51996;DHT22;38010;53.264;6.592;2023-09-19T06:49:03;19.30;99.90
51996;DHT22;38010;53.264;6.592;2023-09-19T06:51:32;19.30;99.90
51996;DHT22;38010;53.264;6.592;2023-09-19T06:53:58;19.30;99.90
51996;DHT22;38010;53.264;6.592;2023-09-19T06:56:24;19.30;99.90
51996;DHT22;38010;53.264;6.592;2023-09-19T06:58:50;19.30;99.90
51996;DHT22;38010;53.264;6.592;2023-09-19T07:01:16;19.30;99.90
51996;DHT22;38010;53.264;6.592;2023-09-19T07:03:42;19.30;99.90
51996;DHT22;38010;53.264;6.592;2023-09-19T07:06:11;19.30;99.90
51996;DHT22;38010;53.264;6.592;2023-09-19T07:08:36;19.30;99.90
51996;DHT22;38010;53.264;6.592;2023-09-19T07:11:04;19.30;99.90
51996;DHT22;38010;53.264;6.592;2023-09-19T07:13:31;19.30;99.90
51996;DHT22;38010;53.264;6.592;2023-09-19T07:15:58;19.30;99.90
51996;DHT22;38010;53.264;6.592;2023-09-19T07:18:25;19.30;99.90
51996;DHT22;38010;53.264;6.592;2023-09-19T07:20:51;19.30;99.90
51996;DHT22;38010;53.264;6.592;2023-09-19T07:23:18;19.30;99.90
51996;DHT22;38010;53.264;6.592;2023-09-19T07:25:44;19.30;99.90
51996;DHT22;38010;53.264;6.592;2023-09-19T07:28:11;19.30;99.90
51996;DHT22;38010;53.264;6.592;2023-09-19T07:30:37;19.30;99.90
51996;DHT22;38010;53.264;6.592;2023-09-19T07:33:05;19.30;99.90
51996;DHT22;38010;53.264;6.592;2023-09-19T07:35:31;19.30;99.90
51996;DHT22;38010;53.264;6.592;2023-09-19T07:37:57;19.30;99.90
51996;DHT22;38010;53.264;6.592;2023-09-19T07:40:24;19.30;99.90
51996;DHT22;38010;53.264;6.592;2023-09-19T07:42:52;19.30;99.90
51996;DHT22;38010;53.264;6.592;2023-09-19T07:45:18;19.30;99.90
51996;DHT22;38010;53.264;6.592;2023-09-19T07:47:48;19.30;99.90
51996;DHT22;38010;53.264;6.592;2023-09-19T07:50:17;19.30;99.90
51996;DHT22;38010;53.264;6.592;2023-09-19T07:52:47;19.30;99.90
51996;DHT22;38010;53.264;6.592;2023-09-19T07:55:13;19.30;99.90
51996;DHT22;38010;53.264;6.592;2023-09-19T07:57:45;19.30;99.90
51996;DHT22;38010;53.264;6.592;2023-09-19T08:00:12;19.30;99.90
51996;DHT22;38010;53.264;6.592;2023-09-19T08:02:42;19.30;99.90
51996;DHT22;38010;53.264;6.592;2023-09-19T08:05:09;19.30;99.90
51996;DHT22;38010;53.264;6.592;2023-09-19T08:07:39;19.30;99.90
51996;DHT22;38010;53.264;6.592;2023-09-19T08:10:06;19.30;99.90
51996;DHT22;38010;53.264;6.592;2023-09-19T08:12:45;19.30;99.90
51996;DHT22;38010;53.264;6.592;2023-09-19T08:15:16;19.30;99.90
51996;DHT22;38010;53.264;6.592;2023-09-19T08:17:42;19.30;99.90
51996;DHT22;38010;53.264;6.592;2023-09-19T08:20:09;19.30;99.90
51996;DHT22;38010;53.264;6.592;2023-09-19T08:22:43;19.30;99.90
51996;DHT22;38010;53.264;6.592;2023-09-19T08:25:11;19.30;99.90
51996;DHT22;38010;53.264;6.592;2023-09-19T08:27:37;19.30;99.90
51996;DHT22;38010;53.264;6.592;2023-09-19T08:30:03;19.30;99.90
51996;DHT22;38010;53.264;6.592;2023-09-19T08:32:29;19.30;99.90
51996;DHT22;38010;53.264;6.592;2023-09-19T08:34:54;19.30;99.90
51996;DHT22;38010;53.264;6.592;2023-09-19T08:37:20;19.30;99.90
51996;DHT22;38010;53.264;6.592;2023-09-19T08:39:46;19.30;99.90
51996;DHT22;38010;53.264;6.592;2023-09-19T08:42:12;19.30;99.90
51996;DHT22;38010;53.264;6.592;2023-09-19T08:44:38;19.40;99.90
51996;DHT22;38010;53.264;6.592;2023-09-19T08:47:11;19.30;99.90
51996;DHT22;38010;53.264;6.592;2023-09-19T08:52:30;19.30;99.90
51996;DHT22;38010;53.264;6.592;2023-09-19T08:54:59;19.30;99.90
51996;DHT22;38010;53.264;6.592;2023-09-19T08:57:33;19.30;99.90
51996;DHT22;38010;53.264;6.592;2023-09-19T09:00:04;19.30;99.90
51996;DHT22;38010;53.264;6.592;2023-09-19T09:02:38;19.40;99.90
51996;DHT22;38010;53.264;6.592;2023-09-19T09:05:11;19.40;99.90
51996;DHT22;38010;53.264;6.592;2023-09-19T09:07:43;19.40;99.90
51996;DHT22;38010;53.264;6.592;2023-09-19T09:10:10;19.30;99.90
51996;DHT22;38010;53.264;6.592;2023-09-19T09:12:36;19.30;99.90
51996;DHT22;38010;53.264;6.592;2023-09-19T09:15:06;19.40;99.90
51996;DHT22;38010;53.264;6.592;2023-09-19T09:17:34;19.30;99.90
51996;DHT22;38010;53.264;6.592;2023-09-19T09:20:00;19.40;99.90
51996;DHT22;38010;53.264;6.592;2023-09-19T09:22:25;19.40;99.90
51996;DHT22;38010;53.264;6.592;2023-09-19T09:24:56;19.40;99.90
51996;DHT22;38010;53.264;6.592;2023-09-19T09:27:27;19.40;99.90
51996;DHT22;38010;53.264;6.592;2023-09-19T09:29:53;19.40;99.90
51996;DHT22;38010;53.264;6.592;2023-09-19T09:32:29;19.40;99.90
51996;DHT22;38010;53.264;6.592;2023-09-19T09:35:00;19.40;99.90
51996;DHT22;38010;53.264;6.592;2023-09-19T09:37:27;19.40;99.90
51996;DHT22;38010;53.264;6.592;2023-09-19T09:40:00;19.40;99.90
51996;DHT22;38010;53.264;6.592;2023-09-19T09:42:45;19.40;99.90
51996;DHT22;38010;53.264;6.592;2023-09-19T09:45:21;19.40;99.90
51996;DHT22;38010;53.264;6.592;2023-09-19T09:48:07;19.40;99.90
51996;DHT22;38010;53.264;6.592;2023-09-19T09:50:46;19.40;99.90
51996;DHT22;38010;53.264;6.592;2023-09-19T09:56:01;19.40;99.90
51996;DHT22;38010;53.264;6.592;2023-09-19T09:58:35;19.40;99.90
51996;DHT22;38010;53.264;6.592;2023-09-19T10:01:03;19.40;99.90
51996;DHT22;38010;53.264;6.592;2023-09-19T10:03:36;19.40;99.90
51996;DHT22;38010;53.264;6.592;2023-09-19T10:06:11;19.40;99.90
51996;DHT22;38010;53.264;6.592;2023-09-19T10:09:07;19.40;99.90
51996;DHT22;38010;53.264;6.592;2023-09-19T10:11:44;19.40;99.90
51996;DHT22;38010;53.264;6.592;2023-09-19T10:14:15;19.40;99.90
51996;DHT22;38010;53.264;6.592;2023-09-19T10:16:46;19.40;99.90
51996;DHT22;38010;53.264;6.592;2023-09-19T10:19:16;19.40;99.90
51996;DHT22;38010;53.264;6.592;2023-09-19T10:21:48;19.40;99.90
51996;DHT22;38010;53.264;6.592;2023-09-19T10:24:16;19.40;99.90
51996;DHT22;38010;53.264;6.592;2023-09-19T10:26:44;19.40;99.90
51996;DHT22;38010;53.264;6.592;2023-09-19T10:29:13;19.40;99.90
51996;DHT22;38010;53.264;6.592;2023-09-19T10:31:39;19.40;99.90
51996;DHT22;38010;53.264;6.592;2023-09-19T10:34:10;19.40;99.90
51996;DHT22;38010;53.264;6.592;2023-09-19T10:36:36;19.40;99.90
51996;DHT22;38010;53.264;6.592;2023-09-19T10:39:04;19.50;99.90
51996;DHT22;38010;53.264;6.592;2023-09-19T10:41:32;19.40;99.90
51996;DHT22;38010;53.264;6.592;2023-09-19T10:44:03;19.40;99.90
51996;DHT22;38010;53.264;6.592;2023-09-19T10:46:32;19.50;99.90
51996;DHT22;38010;53.264;6.592;2023-09-19T10:49:01;19.50;99.90
51996;DHT22;38010;53.264;6.592;2023-09-19T10:51:39;19.40;99.90
51996;DHT22;38010;53.264;6.592;2023-09-19T10:54:10;19.50;99.90
51996;DHT22;38010;53.264;6.592;2023-09-19T10:56:48;19.40;99.90
51996;DHT22;38010;53.264;6.592;2023-09-19T10:59:17;19.50;99.90
51996;DHT22;38010;53.264;6.592;2023-09-19T11:01:47;19.50;99.90
51996;DHT22;38010;53.264;6.592;2023-09-19T11:04:32;19.50;99.90
51996;DHT22;38010;53.264;6.592;2023-09-19T11:07:11;19.40;99.90
51996;DHT22;38010;53.264;6.592;2023-09-19T11:09:54;19.40;99.90
51996;DHT22;38010;53.264;6.592;2023-09-19T11:15:02;19.50;99.90
51996;DHT22;38010;53.264;6.592;2023-09-19T11:17:35;19.50;99.90
51996;DHT22;38010;53.264;6.592;2023-09-19T11:30:42;19.50;99.90
51996;DHT22;38010;53.264;6.592;2023-09-19T11:33:26;19.50;99.90
51996;DHT22;38010;53.264;6.592;2023-09-19T11:36:11;19.50;99.90
51996;DHT22;38010;53.264;6.592;2023-09-19T11:49:26;19.60;99.90
51996;DHT22;38010;53.264;6.592;2023-09-19T11:51:56;19.50;99.90
51996;DHT22;38010;53.264;6.592;2023-09-19T11:54:21;19.60;99.90
51996;DHT22;38010;53.264;6.592;2023-09-19T11:56:49;19.50;99.90
51996;DHT22;38010;53.264;6.592;2023-09-19T11:59:22;19.60;99.90
51996;DHT22;38010;53.264;6.592;2023-09-19T12:01:52;19.50;99.90
51996;DHT22;38010;53.264;6.592;2023-09-19T12:04:41;19.60;99.90
51996;DHT22;38010;53.264;6.592;2023-09-19T12:07:12;19.60;99.90
51996;DHT22;38010;53.264;6.592;2023-09-19T12:09:47;19.60;99.90
51996;DHT22;38010;53.264;6.592;2023-09-19T12:12:20;19.50;99.90
51996;DHT22;38010;53.264;6.592;2023-09-19T12:14:49;19.60;99.90
51996;DHT22;38010;53.264;6.592;2023-09-19T12:17:19;19.60;99.90
51996;DHT22;38010;53.264;6.592;2023-09-19T12:19:56;19.70;99.90
51996;DHT22;38010;53.264;6.592;2023-09-19T12:22:22;19.70;99.90
51996;DHT22;38010;53.264;6.592;2023-09-19T12:24:48;19.70;99.90
51996;DHT22;38010;53.264;6.592;2023-09-19T12:27:16;19.70;99.90
51996;DHT22;38010;53.264;6.592;2023-09-19T12:29:46;19.70;99.90
51996;DHT22;38010;53.264;6.592;2023-09-19T12:32:15;19.70;99.90
51996;DHT22;38010;53.264;6.592;2023-09-19T12:34:51;19.70;99.90
51996;DHT22;38010;53.264;6.592;2023-09-19T12:37:18;19.70;99.90
51996;DHT22;38010;53.264;6.592;2023-09-19T12:39:51;19.60;99.90
51996;DHT22;38010;53.264;6.592;2023-09-19T12:42:26;19.60;99.90
51996;DHT22;38010;53.264;6.592;2023-09-19T12:44:58;19.60;99.90
51996;DHT22;38010;53.264;6.592;2023-09-19T12:47:27;19.60;99.90
51996;DHT22;38010;53.264;6.592;2023-09-19T12:50:12;19.70;99.90
51996;DHT22;38010;53.264;6.592;2023-09-19T12:52:49;19.70;99.90
51996;DHT22;38010;53.264;6.592;2023-09-19T12:55:23;19.70;99.90
51996;DHT22;38010;53.264;6.592;2023-09-19T13:00:41;19.70;99.90
51996;DHT22;38010;53.264;6.592;2023-09-19T13:03:26;19.70;99.90
51996;DHT22;38010;53.264;6.592;2023-09-19T13:06:02;19.70;99.90
51996;DHT22;38010;53.264;6.592;2023-09-19T13:08:34;19.80;99.90
51996;DHT22;38010;53.264;6.592;2023-09-19T13:11:07;19.80;99.90
51996;DHT22;38010;53.264;6.592;2023-09-19T13:13:39;19.90;99.90
51996;DHT22;38010;53.264;6.592;2023-09-19T13:16:05;19.90;99.90
51996;DHT22;38010;53.264;6.592;2023-09-19T13:18:54;19.90;99.90
51996;DHT22;38010;53.264;6.592;2023-09-19T13:21:35;19.80;99.90
51996;DHT22;38010;53.264;6.592;2023-09-19T13:24:24;19.80;99.90
51996;DHT22;38010;53.264;6.592;2023-09-19T13:26:55;19.80;99.90
51996;DHT22;38010;53.264;6.592;2023-09-19T13:29:21;19.80;99.90
51996;DHT22;38010;53.264;6.592;2023-09-19T13:31:51;19.70;99.90
51996;DHT22;38010;53.264;6.592;2023-09-19T13:34:20;19.70;99.90
51996;DHT22;38010;53.264;6.592;2023-09-19T13:36:46;19.70;99.90
51996;DHT22;38010;53.264;6.592;2023-09-19T13:39:16;19.70;99.90
51996;DHT22;38010;53.264;6.592;2023-09-19T13:41:49;19.70;99.90
51996;DHT22;38010;53.264;6.592;2023-09-19T13:44:15;19.60;99.90
51996;DHT22;38010;53.264;6.592;2023-09-19T13:46:42;19.60;99.90
51996;DHT22;38010;53.264;6.592;2023-09-19T13:49:11;19.60;99.90
51996;DHT22;38010;53.264;6.592;2023-09-19T13:51:37;19.60;99.90
51996;DHT22;38010;53.264;6.592;2023-09-19T13:54:03;19.60;99.90
51996;DHT22;38010;53.264;6.592;2023-09-19T13:56:28;19.60;99.90
51996;DHT22;38010;53.264;6.592;2023-09-19T13:58:56;19.50;99.90
51996;DHT22;38010;53.264;6.592;2023-09-19T14:01:22;19.50;99.90
51996;DHT22;38010;53.264;6.592;2023-09-19T14:03:48;19.60;99.90
51996;DHT22;38010;53.264;6.592;2023-09-19T14:06:16;19.60;99.90
51996;DHT22;38010;53.264;6.592;2023-09-19T14:08:42;19.60;99.90
51996;DHT22;38010;53.264;6.592;2023-09-19T14:11:08;19.60;99.90
51996;DHT22;38010;53.264;6.592;2023-09-19T14:13:34;19.50;99.90
51996;DHT22;38010;53.264;6.592;2023-09-19T14:16:07;19.60;99.90
51996;DHT22;38010;53.264;6.592;2023-09-19T14:18:35;19.60;99.90
51996;DHT22;38010;53.264;6.592;2023-09-19T14:21:04;19.60;99.90
51996;DHT22;38010;53.264;6.592;2023-09-19T14:23:38;19.60;99.90
51996;DHT22;38010;53.264;6.592;2023-09-19T14:26:04;19.60;99.90
51996;DHT22;38010;53.264;6.592;2023-09-19T14:28:31;19.50;99.90
51996;DHT22;38010;53.264;6.592;2023-09-19T14:31:04;19.60;99.90
51996;DHT22;38010;53.264;6.592;2023-09-19T14:33:31;19.60;99.90
51996;DHT22;38010;53.264;6.592;2023-09-19T14:35:57;19.50;99.90
51996;DHT22;38010;53.264;6.592;2023-09-19T14:38:22;19.60;99.90
51996;DHT22;38010;53.264;6.592;2023-09-19T14:40:48;19.60;99.90
51996;DHT22;38010;53.264;6.592;2023-09-19T14:43:15;19.60;99.90
51996;DHT22;38010;53.264;6.592;2023-09-19T14:45:41;19.60;99.90
51996;DHT22;38010;53.264;6.592;2023-09-19T14:48:07;19.70;99.90
51996;DHT22;38010;53.264;6.592;2023-09-19T14:50:33;19.70;99.90
51996;DHT22;38010;53.264;6.592;2023-09-19T14:52:58;19.70;99.90
51996;DHT22;38010;53.264;6.592;2023-09-19T14:55:27;19.80;99.90
51996;DHT22;38010;53.264;6.592;2023-09-19T14:57:54;19.80;99.90
51996;DHT22;38010;53.264;6.592;2023-09-19T15:00:22;19.80;99.90
51996;DHT22;38010;53.264;6.592;2023-09-19T15:02:49;19.80;99.90
51996;DHT22;38010;53.264;6.592;2023-09-19T15:05:16;19.80;99.90
51996;DHT22;38010;53.264;6.592;2023-09-19T15:07:42;19.90;99.90
51996;DHT22;38010;53.264;6.592;2023-09-19T15:10:08;19.90;99.90
51996;DHT22;38010;53.264;6.592;2023-09-19T15:12:38;19.90;99.90
51996;DHT22;38010;53.264;6.592;2023-09-19T15:15:05;19.90;99.90
51996;DHT22;38010;53.264;6.592;2023-09-19T15:17:35;19.90;99.90
51996;DHT22;38010;53.264;6.592;2023-09-19T15:20:02;19.90;99.90
51996;DHT22;38010;53.264;6.592;2023-09-19T15:22:28;19.90;99.90
51996;DHT22;38010;53.264;6.592;2023-09-19T15:24:54;19.90;99.90
51996;DHT22;38010;53.264;6.592;2023-09-19T15:27:21;19.90;99.90
51996;DHT22;38010;53.264;6.592;2023-09-19T15:29:47;19.80;99.90
51996;DHT22;38010;53.264;6.592;2023-09-19T15:32:13;19.70;99.90
51996;DHT22;38010;53.264;6.592;2023-09-19T15:34:38;19.70;99.90
51996;DHT22;38010;53.264;6.592;2023-09-19T15:37:04;19.70;99.90
51996;DHT22;38010;53.264;6.592;2023-09-19T15:39:30;19.70;99.90
51996;DHT22;38010;53.264;6.592;2023-09-19T15:41:59;19.60;99.90
51996;DHT22;38010;53.264;6.592;2023-09-19T15:44:24;19.60;99.90
51996;DHT22;38010;53.264;6.592;2023-09-19T15:46:52;19.60;99.90
51996;DHT22;38010;53.264;6.592;2023-09-19T15:49:18;19.50;99.90
51996;DHT22;38010;53.264;6.592;2023-09-19T15:51:44;19.60;99.90
51996;DHT22;38010;53.264;6.592;2023-09-19T15:54:14;19.50;99.90
51996;DHT22;38010;53.264;6.592;2023-09-19T15:56:44;19.50;99.90
51996;DHT22;38010;53.264;6.592;2023-09-19T15:59:10;19.50;99.90
51996;DHT22;38010;53.264;6.592;2023-09-19T16:01:38;19.50;99.90
51996;DHT22;38010;53.264;6.592;2023-09-19T16:04:06;19.50;99.90
51996;DHT22;38010;53.264;6.592;2023-09-19T16:06:35;19.50;99.90
51996;DHT22;38010;53.264;6.592;2023-09-19T16:09:01;19.50;99.90
51996;DHT22;38010;53.264;6.592;2023-09-19T16:11:31;19.50;99.90
51996;DHT22;38010;53.264;6.592;2023-09-19T16:13:57;19.50;99.90
51996;DHT22;38010;53.264;6.592;2023-09-19T16:16:25;19.50;99.90
51996;DHT22;38010;53.264;6.592;2023-09-19T16:18:56;19.50;99.90
51996;DHT22;38010;53.264;6.592;2023-09-19T16:21:30;19.50;99.90
51996;DHT22;38010;53.264;6.592;2023-09-19T16:23:58;19.50;99.90
51996;DHT22;38010;53.264;6.592;2023-09-19T16:26:24;19.40;99.90
51996;DHT22;38010;53.264;6.592;2023-09-19T16:28:53;19.40;99.90